Wetterstation Oberdrees
Wetterdaten: aktuell Mittwoch, 03.03.2021 04:05
Datum Zeit Temp. A. Feuchte A. Luftdruck Regen Wind Richtung Richtung Taupunkt Windchill Windben
03.03.2021 04:05 2,4 C 87 % 1030,0 hPa 0,0 l/m 0,3 km/h (0 Bft) SO 134 0,5 C 2,4 C 3,2 km/h (1 Bft)
03.03.2021 04:00 2,3 C 86 % 1030,1 hPa 0,0 l/m 0,0 km/h (0 Bft) SO 133 0,2 C 2,3 C 0,0 km/h (0 Bft)
03.03.2021 03:55 2,3 C 86 % 1030,1 hPa 0,0 l/m 0,0 km/h (0 Bft) SO 133 0,2 C 2,3 C 0,0 km/h (0 Bft)
03.03.2021 03:50 2,3 C 86 % 1030,0 hPa 0,0 l/m 0,0 km/h (0 Bft) SO 133 0,2 C 2,3 C 0,0 km/h (0 Bft)
03.03.2021 03:45 2,3 C 85 % 1030,1 hPa 0,0 l/m 0,0 km/h (0 Bft) SO 133 0,0 C 2,3 C 0,0 km/h (0 Bft)
03.03.2021 03:40 2,4 C 85 % 1030,2 hPa 0,0 l/m 0,0 km/h (0 Bft) SO 133 0,1 C 2,4 C 0,0 km/h (0 Bft)
03.03.2021 03:35 2,4 C 86 % 1030,2 hPa 0,0 l/m 0,0 km/h (0 Bft) SO 133 0,3 C 2,4 C 0,0 km/h (0 Bft)
03.03.2021 03:30 2,4 C 86 % 1030,2 hPa 0,0 l/m 0,0 km/h (0 Bft) SO 133 0,3 C 2,4 C 0,0 km/h (0 Bft)
03.03.2021 03:25 2,4 C 86 % 1030,1 hPa 0,0 l/m 0,0 km/h (0 Bft) SO 132 0,3 C 2,4 C 0,0 km/h (0 Bft)
03.03.2021 03:20 2,4 C 86 % 1030,2 hPa 0,0 l/m 0,0 km/h (0 Bft) SO 132 0,3 C 2,4 C 0,0 km/h (0 Bft)
03.03.2021 03:15 2,4 C 85 % 1030,3 hPa 0,0 l/m 0,0 km/h (0 Bft) SO 132 0,1 C 2,4 C 0,0 km/h (0 Bft)
03.03.2021 03:10 2,4 C 85 % 1030,4 hPa 0,0 l/m 0,0 km/h (0 Bft) SO 132 0,1 C 2,4 C 0,0 km/h (0 Bft)
03.03.2021 03:05 2,4 C 85 % 1030,5 hPa 0,0 l/m 0,0 km/h (0 Bft) SO 132 0,1 C 2,4 C 0,0 km/h (0 Bft)
03.03.2021 03:00 2,4 C 85 % 1031,0 hPa 0,0 l/m 0,0 km/h (0 Bft) SO 132 0,1 C 2,4 C 0,0 km/h (0 Bft)
03.03.2021 02:55 2,4 C 85 % 1030,5 hPa 0,0 l/m 0,0 km/h (0 Bft) SO 132 0,1 C 2,4 C 0,0 km/h (0 Bft)
03.03.2021 02:50 2,5 C 84 % 1030,4 hPa 0,0 l/m 0,0 km/h (0 Bft) SO 132 0,1 C 2,5 C 0,0 km/h (0 Bft)
03.03.2021 02:45 2,6 C 84 % 1030,6 hPa 0,0 l/m 0,0 km/h (0 Bft) SO 132 0,2 C 2,6 C 0,0 km/h (0 Bft)
03.03.2021 02:40 2,7 C 84 % 1030,7 hPa 0,0 l/m 0,0 km/h (0 Bft) SO 132 0,3 C 2,7 C 0,0 km/h (0 Bft)
03.03.2021 02:35 2,8 C 84 % 1030,6 hPa 0,0 l/m 0,0 km/h (0 Bft) SO 132 0,4 C 2,8 C 0,0 km/h (0 Bft)
03.03.2021 02:30 2,9 C 84 % 1030,7 hPa 0,0 l/m 0,0 km/h (0 Bft) SO 132 0,5 C 2,9 C 0,0 km/h (0 Bft)
03.03.2021 02:25 2,8 C 84 % 1030,8 hPa 0,0 l/m 0,0 km/h (0 Bft) SO 132 0,4 C 2,8 C 0,0 km/h (0 Bft)
03.03.2021 02:20 2,9 C 83 % 1030,8 hPa 0,0 l/m 0,0 km/h (0 Bft) SO 132 0,3 C 2,9 C 0,0 km/h (0 Bft)
03.03.2021 02:15 3,1 C 83 % 1030,8 hPa 0,0 l/m 0,0 km/h (0 Bft) SO 132 0,5 C 3,1 C 0,0 km/h (0 Bft)
03.03.2021 02:10 3,2 C 83 % 1030,9 hPa 0,0 l/m 0,0 km/h (0 Bft) SO 132 0,6 C 3,2 C 0,0 km/h (0 Bft)
03.03.2021 02:05 3,3 C 82 % 1030,8 hPa 0,0 l/m 0,0 km/h (0 Bft) SO 132 0,5 C 3,3 C 0,0 km/h (0 Bft)
03.03.2021 02:00 3,4 C 83 % 1031,0 hPa 0,0 l/m 0,0 km/h (0 Bft) SO 132 0,8 C 3,4 C 0,0 km/h (0 Bft)
03.03.2021 01:55 3,5 C 82 % 1031,0 hPa 0,0 l/m 0,0 km/h (0 Bft) SO 132 0,7 C 3,5 C 0,0 km/h (0 Bft)
03.03.2021 01:50 3,6 C 82 % 1031,0 hPa 0,0 l/m 0,0 km/h (0 Bft) SO 132 0,8 C 3,6 C 0,0 km/h (0 Bft)
03.03.2021 01:45 3,7 C 83 % 1030,9 hPa 0,0 l/m 0,0 km/h (0 Bft) SO 132 1,1 C 3,7 C 0,0 km/h (0 Bft)
03.03.2021 01:40 3,7 C 83 % 1031,0 hPa 0,0 l/m 0,0 km/h (0 Bft) SO 132 1,1 C 3,7 C 0,0 km/h (0 Bft)
03.03.2021 01:35 3,6 C 84 % 1030,8 hPa 0,0 l/m 0,0 km/h (0 Bft) SO 132 1,2 C 3,6 C 0,0 km/h (0 Bft)
03.03.2021 01:30 3,5 C 84 % 1031,0 hPa 0,0 l/m 0,0 km/h (0 Bft) SO 132 1,1 C 3,5 C 0,0 km/h (0 Bft)
03.03.2021 01:25 3,4 C 83 % 1031,0 hPa 0,0 l/m 0,0 km/h (0 Bft) SO 133 0,8 C 3,4 C 0,0 km/h (0 Bft)
03.03.2021 01:20 3,3 C 83 % 1031,0 hPa 0,0 l/m 0,0 km/h (0 Bft) SO 133 0,7 C 3,3 C 0,0 km/h (0 Bft)
03.03.2021 01:15 3,4 C 83 % 1031,0 hPa 0,0 l/m 0,0 km/h (0 Bft) O-SO 105 0,8 C 3,4 C 0,0 km/h (0 Bft)
03.03.2021 01:10 3,4 C 83 % 1030,9 hPa 0,0 l/m 0,0 km/h (0 Bft) O-SO 105 0,8 C 3,4 C 0,0 km/h (0 Bft)
03.03.2021 01:05 3,5 C 82 % 1030,9 hPa 0,0 l/m 0,0 km/h (0 Bft) O-SO 107 0,7 C 3,5 C 0,0 km/h (0 Bft)
03.03.2021 01:00 3,6 C 83 % 1031,0 hPa 0,0 l/m 0,0 km/h (0 Bft) O-SO 107 1,0 C 3,6 C 0,0 km/h (0 Bft)
03.03.2021 00:55 3,6 C 83 % 1031,0 hPa 0,0 l/m 0,0 km/h (0 Bft) O-SO 107 1,0 C 3,6 C 0,0 km/h (0 Bft)
03.03.2021 00:50 3,6 C 82 % 1030,9 hPa 0,0 l/m 0,0 km/h (0 Bft) O-SO 107 0,8 C 3,6 C 0,0 km/h (0 Bft)
03.03.2021 00:45 3,7 C 82 % 1030,9 hPa 0,0 l/m 0,0 km/h (0 Bft) O-SO 107 0,9 C 3,7 C 0,0 km/h (0 Bft)
03.03.2021 00:40 3,7 C 82 % 1031,0 hPa 0,0 l/m 0,0 km/h (0 Bft) O-SO 107 0,9 C 3,7 C 0,0 km/h (0 Bft)
03.03.2021 00:35 3,8 C 82 % 1030,9 hPa 0,0 l/m 0,0 km/h (0 Bft) O-SO 107 1,0 C 3,8 C 0,0 km/h (0 Bft)
03.03.2021 00:30 3,7 C 83 % 1030,9 hPa 0,0 l/m 0,0 km/h (0 Bft) O-SO 107 1,1 C 3,7 C 0,0 km/h (0 Bft)
03.03.2021 00:25 3,7 C 82 % 1031,0 hPa 0,0 l/m 0,0 km/h (0 Bft) O-SO 107 0,9 C 3,7 C 0,0 km/h (0 Bft)
03.03.2021 00:20 3,7 C 82 % 1031,1 hPa 0,0 l/m 0,0 km/h (0 Bft) O-SO 103 0,9 C 3,7 C 0,0 km/h (0 Bft)
03.03.2021 00:15 3,7 C 82 % 1031,1 hPa 0,0 l/m 0,0 km/h (0 Bft) O-SO 103 0,9 C 3,7 C 0,0 km/h (0 Bft)
03.03.2021 00:10 3,8 C 81 % 1031,1 hPa 0,0 l/m 0,0 km/h (0 Bft) O-SO 103 0,8 C 3,8 C 0,0 km/h (0 Bft)
03.03.2021 00:05 3,9 C 82 % 1031,1 hPa 0,0 l/m 0,0 km/h (0 Bft) O-SO 103 1,1 C 3,9 C 0,0 km/h (0 Bft)
03.03.2021 00:00 4,0 C 81 % 1031,0 hPa 0,0 l/m 0,0 km/h (0 Bft) O-SO 103 1,0 C 4,0 C 0,0 km/h (0 Bft)
02.03.2021 23:55 4,1 C 81 % 1031,1 hPa 0,0 l/m 0,0 km/h (0 Bft) O-SO 103 1,1 C 4,1 C 0,0 km/h (0 Bft)
02.03.2021 23:50 4,3 C 80 % 1031,0 hPa 0,0 l/m 0,0 km/h (0 Bft) O-SO 103 1,2 C 4,3 C 0,0 km/h (0 Bft)
02.03.2021 23:45 4,6 C 79 % 1031,0 hPa 0,0 l/m 0,0 km/h (0 Bft) O-SO 103 1,3 C 4,6 C 0,0 km/h (0 Bft)
02.03.2021 23:40 4,7 C 80 % 1031,0 hPa 0,0 l/m 0,0 km/h (0 Bft) O-SO 105 1,6 C 4,7 C 0,0 km/h (0 Bft)
02.03.2021 23:35 4,8 C 80 % 1031,2 hPa 0,0 l/m 0,0 km/h (0 Bft) O-SO 105 1,6 C 4,8 C 0,0 km/h (0 Bft)
02.03.2021 23:30 4,9 C 80 % 1031,3 hPa 0,0 l/m 0,0 km/h (0 Bft) O-SO 105 1,7 C 4,9 C 0,0 km/h (0 Bft)
02.03.2021 23:25 4,9 C 80 % 1031,2 hPa 0,0 l/m 0,0 km/h (0 Bft) O-SO 105 1,7 C 4,9 C 0,0 km/h (0 Bft)
02.03.2021 23:20 5,0 C 79 % 1031,2 hPa 0,0 l/m 0,0 km/h (0 Bft) O-SO 105 1,7 C 5,0 C 0,0 km/h (0 Bft)
02.03.2021 23:15 5,0 C 81 % 1031,2 hPa 0,0 l/m 0,0 km/h (0 Bft) O-SO 105 2,0 C 5,0 C 0,0 km/h (0 Bft)
02.03.2021 23:10 5,0 C 80 % 1031,2 hPa 0,0 l/m 0,0 km/h (0 Bft) O-SO 105 1,8 C 5,0 C 0,0 km/h (0 Bft)
02.03.2021 23:05 5,1 C 80 % 1031,3 hPa 0,0 l/m 0,0 km/h (0 Bft) O-SO 105 1,9 C 5,1 C 0,0 km/h (0 Bft)
02.03.2021 23:00 5,1 C 79 % 1031,4 hPa 0,0 l/m 0,0 km/h (0 Bft) O-SO 103 1,8 C 5,1 C 0,0 km/h (0 Bft)
02.03.2021 22:55 5,2 C 79 % 1031,4 hPa 0,0 l/m 0,0 km/h (0 Bft) O-SO 103 1,9 C 5,2 C 0,0 km/h (0 Bft)
02.03.2021 22:50 5,3 C 79 % 1031,5 hPa 0,0 l/m 0,0 km/h (0 Bft) O-SO 103 2,0 C 5,3 C 1,6 km/h (1 Bft)
02.03.2021 22:45 5,1 C 82 % 1031,5 hPa 0,0 l/m 0,5 km/h (0 Bft) O-SO 103 2,3 C 5,1 C 6,4 km/h (2 Bft)
02.03.2021 22:40 4,7 C 82 % 1031,6 hPa 0,0 l/m 0,0 km/h (0 Bft) SO 126 1,9 C 4,7 C 0,0 km/h (0 Bft)
02.03.2021 22:35 4,4 C 83 % 1031,6 hPa 0,0 l/m 0,0 km/h (0 Bft) SO 130 1,8 C 4,4 C 0,0 km/h (0 Bft)
02.03.2021 22:30 4,2 C 83 % 1031,5 hPa 0,0 l/m 0,0 km/h (0 Bft) SO 130 1,6 C 4,2 C 0,0 km/h (0 Bft)
02.03.2021 22:25 4,1 C 81 % 1031,5 hPa 0,0 l/m 0,0 km/h (0 Bft) SO 126 1,1 C 4,1 C 0,0 km/h (0 Bft)
02.03.2021 22:20 4,3 C 81 % 1031,4 hPa 0,0 l/m 0,0 km/h (0 Bft) SO 126 1,3 C 4,3 C 0,0 km/h (0 Bft)
02.03.2021 22:15 4,4 C 81 % 1031,5 hPa 0,0 l/m 0,0 km/h (0 Bft) SO 126 1,4 C 4,4 C 0,0 km/h (0 Bft)
02.03.2021 22:10 4,5 C 81 % 1031,4 hPa 0,0 l/m 0,0 km/h (0 Bft) SO 126 1,5 C 4,5 C 0,0 km/h (0 Bft)
02.03.2021 22:05 4,6 C 80 % 1031,4 hPa 0,0 l/m 0,0 km/h (0 Bft) SO 126 1,5 C 4,6 C 0,0 km/h (0 Bft)
02.03.2021 22:00 4,8 C 80 % 1031,5 hPa 0,0 l/m 0,0 km/h (0 Bft) SO 126 1,6 C 4,8 C 0,0 km/h (0 Bft)
02.03.2021 21:55 4,9 C 79 % 1031,5 hPa 0,0 l/m 0,0 km/h (0 Bft) SO 126 1,6 C 4,9 C 0,0 km/h (0 Bft)
02.03.2021 21:50 5,2 C 79 % 1031,4 hPa 0,0 l/m 0,0 km/h (0 Bft) SO 126 1,9 C 5,2 C 0,0 km/h (0 Bft)
02.03.2021 21:45 5,4 C 79 % 1031,4 hPa 0,0 l/m 0,0 km/h (0 Bft) SO 126 2,1 C 5,4 C 0,0 km/h (0 Bft)
02.03.2021 21:40 5,6 C 78 % 1031,4 hPa 0,0 l/m 0,0 km/h (0 Bft) SO 126 2,1 C 5,6 C 1,6 km/h (1 Bft)
02.03.2021 21:35 5,8 C 78 % 1031,4 hPa 0,0 l/m 0,6 km/h (0 Bft) SO 126 2,3 C 5,8 C 1,6 km/h (1 Bft)
02.03.2021 21:30 6,1 C 77 % 1031,4 hPa 0,0 l/m 0,4 km/h (0 Bft) SO 126 2,4 C 6,1 C 3,2 km/h (1 Bft)
02.03.2021 21:25 6,5 C 76 % 1031,5 hPa 0,0 l/m 0,3 km/h (0 Bft) O-SO 117 2,6 C 6,5 C 3,2 km/h (1 Bft)
02.03.2021 21:20 6,6 C 76 % 1031,5 hPa 0,0 l/m 0,0 km/h (0 Bft) O-SO 117 2,7 C 6,6 C 1,6 km/h (1 Bft)
02.03.2021 21:15 6,6 C 76 % 1031,3 hPa 0,0 l/m 0,1 km/h (0 Bft) O-SO 117 2,7 C 6,6 C 1,6 km/h (1 Bft)
02.03.2021 21:10 6,7 C 76 % 1031,4 hPa 0,0 l/m 0,0 km/h (0 Bft) O-SO 117 2,8 C 6,7 C 1,6 km/h (1 Bft)
02.03.2021 21:05 6,9 C 75 % 1031,4 hPa 0,0 l/m 0,0 km/h (0 Bft) O-SO 117 2,8 C 6,9 C 1,6 km/h (1 Bft)
02.03.2021 21:00 7,1 C 75 % 1031,3 hPa 0,0 l/m 0,0 km/h (0 Bft) O-SO 117 3,0 C 7,1 C 0,0 km/h (0 Bft)
02.03.2021 20:55 7,1 C 76 % 1031,3 hPa 0,0 l/m 0,0 km/h (0 Bft) O-SO 117 3,2 C 7,1 C 1,6 km/h (1 Bft)
02.03.2021 20:50 7,1 C 76 % 1031,3 hPa 0,0 l/m 0,0 km/h (0 Bft) O-SO 117 3,2 C 7,1 C 1,6 km/h (1 Bft)
02.03.2021 20:45 7,2 C 75 % 1031,3 hPa 0,0 l/m 0,3 km/h (0 Bft) O-SO 117 3,1 C 7,2 C 1,6 km/h (1 Bft)
02.03.2021 20:40 7,4 C 74 % 1031,5 hPa 0,0 l/m 0,0 km/h (0 Bft) O-SO 117 3,1 C 7,4 C 0,0 km/h (0 Bft)
02.03.2021 20:35 7,6 C 74 % 1031,4 hPa 0,0 l/m 0,0 km/h (0 Bft) O-SO 117 3,3 C 7,6 C 0,0 km/h (0 Bft)
02.03.2021 20:30 7,8 C 74 % 1031,4 hPa 0,0 l/m 0,0 km/h (0 Bft) O-SO 117 3,5 C 7,8 C 0,0 km/h (0 Bft)
02.03.2021 20:25 8,1 C 73 % 1031,4 hPa 0,0 l/m 0,0 km/h (0 Bft) O-SO 117 3,6 C 8,1 C 0,0 km/h (0 Bft)
02.03.2021 20:20 8,3 C 72 % 1031,3 hPa 0,0 l/m 0,0 km/h (0 Bft) O-SO 117 3,6 C 8,3 C 0,0 km/h (0 Bft)
02.03.2021 20:15 8,6 C 71 % 1031,4 hPa 0,0 l/m 0,0 km/h (0 Bft) O-SO 117 3,6 C 8,6 C 0,0 km/h (0 Bft)
02.03.2021 20:10 8,8 C 72 % 1031,3 hPa 0,0 l/m 0,0 km/h (0 Bft) O-SO 117 4,0 C 8,8 C 0,0 km/h (0 Bft)
02.03.2021 20:05 9,0 C 71 % 1031,3 hPa 0,0 l/m 0,0 km/h (0 Bft) O-SO 117 4,0 C 9,0 C 0,0 km/h (0 Bft)
02.03.2021 20:00 9,1 C 70 % 1031,3 hPa 0,0 l/m 0,0 km/h (0 Bft) O-SO 117 3,9 C 9,1 C 0,0 km/h (0 Bft)
02.03.2021 19:55 9,3 C 71 % 1031,2 hPa 0,0 l/m 0,0 km/h (0 Bft) O-SO 117 4,3 C 9,3 C 1,6 km/h (1 Bft)
02.03.2021 19:50 9,4 C 70 % 1031,2 hPa 0,0 l/m 0,0 km/h (0 Bft) O-SO 117 4,2 C 9,4 C 0,0 km/h (0 Bft)
02.03.2021 19:45 9,5 C 70 % 1031,2 hPa 0,0 l/m 0,3 km/h (0 Bft) O-SO 117 4,3 C 9,5 C 1,6 km/h (1 Bft)
02.03.2021 19:40 9,6 C 70 % 1031,1 hPa 0,0 l/m 1,3 km/h (1 Bft) O-SO 117 4,4 C 9,6 C 3,2 km/h (1 Bft)
02.03.2021 19:35 9,6 C 70 % 1031,1 hPa 0,0 l/m 0,4 km/h (0 Bft) O-SO 117 4,4 C 9,6 C 3,2 km/h (1 Bft)
02.03.2021 19:30 9,8 C 70 % 1031,0 hPa 0,0 l/m 0,0 km/h (0 Bft) O-SO 117 4,6 C 9,8 C 0,0 km/h (0 Bft)
02.03.2021 19:25 10,0 C 69 % 1031,1 hPa 0,0 l/m 0,0 km/h (0 Bft) O-SO 117 4,6 C 10,0 C 0,0 km/h (0 Bft)
02.03.2021 19:20 10,1 C 69 % 1031,0 hPa 0,0 l/m 0,2 km/h (0 Bft) O-SO 117 4,7 C 10,1 C 1,6 km/h (1 Bft)
02.03.2021 19:15 10,2 C 69 % 1031,0 hPa 0,0 l/m 1,7 km/h (1 Bft) O-SO 117 4,8 C 10,2 C 3,2 km/h (1 Bft)
02.03.2021 19:10 10,4 C 69 % 1031,0 hPa 0,0 l/m 0,8 km/h (0 Bft) O-SO 113 5,0 C 10,4 C 3,2 km/h (1 Bft)
02.03.2021 19:05 10,7 C 68 % 1030,9 hPa 0,0 l/m 0,0 km/h (0 Bft) O-SO 113 5,0 C 10,7 C 0,0 km/h (0 Bft)
02.03.2021 19:00 11,0 C 67 % 1031,0 hPa 0,0 l/m 0,0 km/h (0 Bft) O-SO 113 5,1 C 11,0 C 1,6 km/h (1 Bft)
02.03.2021 18:55 11,3 C 66 % 1031,0 hPa 0,0 l/m 0,2 km/h (0 Bft) O-SO 112 5,2 C 11,3 C 1,6 km/h (1 Bft)
02.03.2021 18:50 11,7 C 65 % 1030,8 hPa 0,0 l/m 0,1 km/h (0 Bft) O-SO 112 5,3 C 11,7 C 1,6 km/h (1 Bft)
02.03.2021 18:45 12,0 C 64 % 1030,8 hPa 0,0 l/m 0,2 km/h (0 Bft) O-SO 112 5,4 C 12,0 C 1,6 km/h (1 Bft)
02.03.2021 18:40 12,3 C 63 % 1030,8 hPa 0,0 l/m 0,4 km/h (0 Bft) O-SO 121 5,5 C 12,3 C 3,2 km/h (1 Bft)
02.03.2021 18:35 12,5 C 62 % 1030,8 hPa 0,0 l/m 0,5 km/h (0 Bft) O-SO 119 5,4 C 12,5 C 1,6 km/h (1 Bft)
02.03.2021 18:30 12,7 C 62 % 1030,7 hPa 0,0 l/m 0,4 km/h (0 Bft) O 95 5,6 C 12,7 C 3,2 km/h (1 Bft)
02.03.2021 18:25 12,9 C 61 % 1030,6 hPa 0,0 l/m 0,1 km/h (0 Bft) O-SO 123 5,6 C 12,9 C 1,6 km/h (1 Bft)
02.03.2021 18:20 13,2 C 61 % 1030,6 hPa 0,0 l/m 0,6 km/h (0 Bft) SO 130 5,8 C 13,2 C 3,2 km/h (1 Bft)
02.03.2021 18:15 13,4 C 60 % 1030,6 hPa 0,0 l/m 0,6 km/h (0 Bft) S-SO 157 5,8 C 13,4 C 4,8 km/h (1 Bft)
02.03.2021 18:10 13,8 C 60 % 1030,5 hPa 0,0 l/m 0,1 km/h (0 Bft) SO 125 6,2 C 13,8 C 1,6 km/h (1 Bft)
02.03.2021 18:05 14,1 C 59 % 1030,6 hPa 0,0 l/m 0,2 km/h (0 Bft) O-SO 122 6,2 C 14,1 C 1,6 km/h (1 Bft)
02.03.2021 18:00 14,4 C 58 % 1030,5 hPa 0,0 l/m 0,6 km/h (0 Bft) O-SO 123 6,2 C 14,4 C 3,2 km/h (1 Bft)
02.03.2021 17:55 14,7 C 58 % 1030,4 hPa 0,0 l/m 0,8 km/h (0 Bft) O-SO 123 6,5 C 14,7 C 3,2 km/h (1 Bft)
02.03.2021 17:50 14,9 C 57 % 1030,5 hPa 0,0 l/m 1,0 km/h (0 Bft) O-SO 107 6,5 C 14,9 C 4,8 km/h (1 Bft)
02.03.2021 17:45 15,1 C 57 % 1030,4 hPa 0,0 l/m 1,8 km/h (1 Bft) O-SO 109 6,6 C 15,1 C 9,7 km/h (2 Bft)
02.03.2021 17:40 15,3 C 57 % 1030,3 hPa 0,0 l/m 2,0 km/h (1 Bft) S-SO 148 6,8 C 15,3 C 4,8 km/h (1 Bft)
02.03.2021 17:35 15,3 C 56 % 1030,4 hPa 0,0 l/m 1,8 km/h (1 Bft) O-SO 107 6,6 C 15,3 C 4,8 km/h (1 Bft)
02.03.2021 17:30 15,4 C 56 % 1030,3 hPa 0,0 l/m 1,7 km/h (1 Bft) O-SO 111 6,7 C 15,4 C 6,4 km/h (2 Bft)
02.03.2021 17:25 15,4 C 56 % 1030,3 hPa 0,0 l/m 2,5 km/h (1 Bft) O-SO 102 6,7 C 15,4 C 9,7 km/h (2 Bft)
02.03.2021 17:20 15,4 C 56 % 1030,4 hPa 0,0 l/m 2,5 km/h (1 Bft) O-SO 123 6,7 C 15,4 C 9,7 km/h (2 Bft)
02.03.2021 17:15 15,5 C 56 % 1030,4 hPa 0,0 l/m 3,9 km/h (1 Bft) O-SO 107 6,8 C 15,5 C 9,7 km/h (2 Bft)
02.03.2021 17:10 15,7 C 55 % 1030,3 hPa 0,0 l/m 4,3 km/h (1 Bft) O 100 6,7 C 15,7 C 9,7 km/h (2 Bft)
02.03.2021 17:05 15,7 C 55 % 1030,4 hPa 0,0 l/m 3,3 km/h (1 Bft) O 93 6,7 C 15,7 C 8,0 km/h (2 Bft)
02.03.2021 17:00 15,8 C 55 % 1030,4 hPa 0,0 l/m 2,7 km/h (1 Bft) O-SO 114 6,8 C 15,8 C 9,7 km/h (2 Bft)
02.03.2021 16:55 15,8 C 54 % 1030,4 hPa 0,0 l/m 4,9 km/h (1 Bft) O 86 6,5 C 15,8 C 12,9 km/h (3 Bft)
02.03.2021 16:50 15,9 C 54 % 1030,4 hPa 0,0 l/m 4,5 km/h (1 Bft) O-SO 120 6,6 C 15,9 C 11,3 km/h (2 Bft)
02.03.2021 16:45 16,0 C 54 % 1030,5 hPa 0,0 l/m 3,3 km/h (1 Bft) O-SO 103 6,7 C 16,0 C 9,7 km/h (2 Bft)
02.03.2021 16:40 16,1 C 53 % 1030,6 hPa 0,0 l/m 4,4 km/h (1 Bft) O 81 6,5 C 16,1 C 12,9 km/h (3 Bft)
02.03.2021 16:35 16,2 C 53 % 1030,7 hPa 0,0 l/m 4,3 km/h (1 Bft) SO 137 6,6 C 16,2 C 11,3 km/h (2 Bft)
02.03.2021 16:30 16,3 C 54 % 1030,7 hPa 0,0 l/m 3,2 km/h (1 Bft) N 360 7,0 C 16,3 C 9,7 km/h (2 Bft)
02.03.2021 16:25 16,3 C 54 % 1030,6 hPa 0,0 l/m 2,6 km/h (1 Bft) SO 140 7,0 C 16,3 C 6,4 km/h (2 Bft)
02.03.2021 16:20 16,4 C 53 % 1030,6 hPa 0,0 l/m 3,3 km/h (1 Bft) O 92 6,8 C 16,4 C 9,7 km/h (2 Bft)
02.03.2021 16:15 16,5 C 54 % 1030,7 hPa 0,0 l/m 2,1 km/h (1 Bft) O 90 7,2 C 16,5 C 6,4 km/h (2 Bft)
02.03.2021 16:10 16,4 C 53 % 1030,6 hPa 0,0 l/m 2,2 km/h (1 Bft) O-SO 123 6,8 C 16,4 C 6,4 km/h (2 Bft)
02.03.2021 16:05 16,4 C 54 % 1030,8 hPa 0,0 l/m 3,6 km/h (1 Bft) O-SO 115 7,1 C 16,4 C 9,7 km/h (2 Bft)
02.03.2021 16:00 16,4 C 54 % 1030,7 hPa 0,0 l/m 3,4 km/h (1 Bft) O 98 7,1 C 16,4 C 11,3 km/h (2 Bft)
02.03.2021 15:55 16,4 C 53 % 1030,7 hPa 0,0 l/m 3,9 km/h (1 Bft) O-SO 105 6,8 C 16,4 C 9,7 km/h (2 Bft)
02.03.2021 15:50 16,4 C 53 % 1030,7 hPa 0,0 l/m 3,0 km/h (1 Bft) O-SO 112 6,8 C 16,4 C 11,3 km/h (2 Bft)
02.03.2021 15:45 16,4 C 53 % 1030,8 hPa 0,0 l/m 4,0 km/h (1 Bft) O 94 6,8 C 16,4 C 9,7 km/h (2 Bft)
02.03.2021 15:40 16,4 C 54 % 1030,7 hPa 0,0 l/m 2,9 km/h (1 Bft) O-SO 113 7,1 C 16,4 C 6,4 km/h (2 Bft)
02.03.2021 15:35 16,3 C 54 % 1030,7 hPa 0,0 l/m 4,1 km/h (1 Bft) O-SO 104 7,0 C 16,3 C 12,9 km/h (3 Bft)
02.03.2021 15:30 16,3 C 54 % 1030,8 hPa 0,0 l/m 3,0 km/h (1 Bft) O-SO 103 7,0 C 16,3 C 9,7 km/h (2 Bft)
02.03.2021 15:25 16,1 C 54 % 1030,8 hPa 0,0 l/m 3,7 km/h (1 Bft) O-SO 113 6,8 C 16,1 C 11,3 km/h (2 Bft)
02.03.2021 15:20 16,1 C 54 % 1030,8 hPa 0,0 l/m 5,1 km/h (1 Bft) O-NO 64 6,8 C 16,1 C 12,9 km/h (3 Bft)
02.03.2021 15:15 16,2 C 54 % 1030,9 hPa 0,0 l/m 4,4 km/h (1 Bft) NW 321 6,9 C 16,2 C 11,3 km/h (2 Bft)
02.03.2021 15:10 16,2 C 53 % 1031,0 hPa 0,0 l/m 3,9 km/h (1 Bft) O 91 6,6 C 16,2 C 9,7 km/h (2 Bft)
02.03.2021 15:05 16,2 C 54 % 1031,1 hPa 0,0 l/m 3,7 km/h (1 Bft) O-NO 65 6,9 C 16,2 C 11,3 km/h (2 Bft)
02.03.2021 15:00 16,1 C 54 % 1031,0 hPa 0,0 l/m 4,1 km/h (1 Bft) W 269 6,8 C 16,1 C 9,7 km/h (2 Bft)
02.03.2021 14:55 15,9 C 55 % 1031,1 hPa 0,0 l/m 3,5 km/h (1 Bft) O 98 6,9 C 15,9 C 11,3 km/h (2 Bft)
02.03.2021 14:50 15,8 C 54 % 1031,1 hPa 0,0 l/m 5,6 km/h (2 Bft) O-SO 107 6,5 C 15,8 C 14,5 km/h (3 Bft)
02.03.2021 14:45 15,9 C 54 % 1031,1 hPa 0,0 l/m 4,2 km/h (1 Bft) O 88 6,6 C 15,9 C 9,7 km/h (2 Bft)
02.03.2021 14:40 15,9 C 55 % 1031,2 hPa 0,0 l/m 4,5 km/h (1 Bft) O-SO 104 6,9 C 15,9 C 11,3 km/h (2 Bft)
02.03.2021 14:35 15,8 C 55 % 1031,1 hPa 0,0 l/m 3,9 km/h (1 Bft) O 84 6,8 C 15,8 C 11,3 km/h (2 Bft)
02.03.2021 14:30 15,7 C 55 % 1031,2 hPa 0,0 l/m 5,2 km/h (1 Bft) O-SO 111 6,7 C 15,7 C 12,9 km/h (3 Bft)
02.03.2021 14:25 15,6 C 55 % 1031,3 hPa 0,0 l/m 5,2 km/h (1 Bft) O-SO 113 6,6 C 15,6 C 17,7 km/h (3 Bft)
02.03.2021 14:20 15,6 C 55 % 1031,2 hPa 0,0 l/m 4,7 km/h (1 Bft) S-SW 207 6,6 C 15,6 C 12,9 km/h (3 Bft)
02.03.2021 14:15 15,5 C 56 % 1031,2 hPa 0,0 l/m 5,0 km/h (1 Bft) O-NO 70 6,8 C 15,5 C 11,3 km/h (2 Bft)
02.03.2021 14:10 15,4 C 56 % 1031,3 hPa 0,0 l/m 5,6 km/h (2 Bft) O 99 6,7 C 15,4 C 14,5 km/h (3 Bft)
02.03.2021 14:05 15,3 C 56 % 1031,3 hPa 0,0 l/m 6,4 km/h (2 Bft) O 85 6,6 C 15,3 C 12,9 km/h (3 Bft)
02.03.2021 14:00 15,2 C 56 % 1031,3 hPa 0,0 l/m 5,0 km/h (1 Bft) O 83 6,5 C 15,2 C 12,9 km/h (3 Bft)
02.03.2021 13:55 15,2 C 57 % 1031,4 hPa 0,0 l/m 5,0 km/h (1 Bft) O-SO 103 6,7 C 15,2 C 11,3 km/h (2 Bft)
02.03.2021 13:50 14,9 C 56 % 1031,5 hPa 0,0 l/m 4,9 km/h (1 Bft) O-SO 107 6,2 C 14,9 C 9,7 km/h (2 Bft)
02.03.2021 13:45 14,9 C 57 % 1031,5 hPa 0,0 l/m 6,4 km/h (2 Bft) O 85 6,5 C 14,9 C 16,1 km/h (3 Bft)
02.03.2021 13:40 14,8 C 57 % 1031,6 hPa 0,0 l/m 6,5 km/h (2 Bft) O-SO 117 6,4 C 14,8 C 12,9 km/h (3 Bft)
02.03.2021 13:35 14,8 C 57 % 1031,5 hPa 0,0 l/m 4,3 km/h (1 Bft) O 93 6,4 C 14,8 C 16,1 km/h (3 Bft)
02.03.2021 13:30 14,7 C 57 % 1031,6 hPa 0,0 l/m 6,4 km/h (2 Bft) O-NO 76 6,3 C 14,7 C 16,1 km/h (3 Bft)
02.03.2021 13:25 14,7 C 57 % 1031,6 hPa 0,0 l/m 6,2 km/h (2 Bft) O-SO 105 6,3 C 14,7 C 14,5 km/h (3 Bft)
02.03.2021 13:20 14,6 C 59 % 1031,6 hPa 0,0 l/m 4,8 km/h (1 Bft) O-NO 76 6,7 C 14,6 C 11,3 km/h (2 Bft)
02.03.2021 13:15 14,4 C 58 % 1031,6 hPa 0,0 l/m 5,4 km/h (2 Bft) O-NO 78 6,2 C 14,4 C 12,9 km/h (3 Bft)
02.03.2021 13:10 14,3 C 58 % 1031,8 hPa 0,0 l/m 5,3 km/h (1 Bft) O-SO 117 6,2 C 14,3 C 12,9 km/h (3 Bft)
02.03.2021 13:05 14,3 C 58 % 1031,8 hPa 0,0 l/m 5,4 km/h (2 Bft) O 84 6,2 C 14,3 C 12,9 km/h (3 Bft)
02.03.2021 13:00 14,2 C 58 % 1031,9 hPa 0,0 l/m 6,2 km/h (2 Bft) SO 125 6,1 C 14,2 C 12,9 km/h (3 Bft)
02.03.2021 12:55 14,1 C 58 % 1031,8 hPa 0,0 l/m 5,1 km/h (1 Bft) SO 142 6,0 C 14,1 C 14,5 km/h (3 Bft)
02.03.2021 12:50 14,0 C 58 % 1031,9 hPa 0,0 l/m 6,2 km/h (2 Bft) O-SO 113 5,9 C 14,0 C 12,9 km/h (3 Bft)
02.03.2021 12:45 13,9 C 58 % 1031,9 hPa 0,0 l/m 6,0 km/h (2 Bft) S 173 5,8 C 13,9 C 16,1 km/h (3 Bft)
02.03.2021 12:40 13,8 C 59 % 1032,1 hPa 0,0 l/m 6,2 km/h (2 Bft) O 99 5,9 C 13,8 C 14,5 km/h (3 Bft)
02.03.2021 12:35 13,7 C 58 % 1032,0 hPa 0,0 l/m 5,8 km/h (2 Bft) O 81 5,6 C 13,7 C 14,5 km/h (3 Bft)
02.03.2021 12:30 13,5 C 59 % 1032,1 hPa 0,0 l/m 4,9 km/h (1 Bft) SO 145 5,6 C 13,5 C 11,3 km/h (2 Bft)
02.03.2021 12:25 13,3 C 60 % 1032,1 hPa 0,0 l/m 6,0 km/h (2 Bft) SO 130 5,7 C 13,3 C 12,9 km/h (3 Bft)
02.03.2021 12:20 13,2 C 60 % 1032,2 hPa 0,0 l/m 6,4 km/h (2 Bft) O-SO 105 5,6 C 13,2 C 16,1 km/h (3 Bft)
02.03.2021 12:15 13,0 C 62 % 1032,3 hPa 0,0 l/m 4,4 km/h (1 Bft) O-SO 107 5,9 C 13,0 C 11,3 km/h (2 Bft)
02.03.2021 12:10 12,8 C 61 % 1032,3 hPa 0,0 l/m 5,2 km/h (1 Bft) SO 134 5,5 C 12,8 C 11,3 km/h (2 Bft)
02.03.2021 12:05 12,7 C 61 % 1032,4 hPa 0,0 l/m 6,1 km/h (2 Bft) SO 138 5,4 C 12,7 C 12,9 km/h (3 Bft)
02.03.2021 12:00 12,6 C 62 % 1032,4 hPa 0,0 l/m 4,6 km/h (1 Bft) O-NO 78 5,5 C 12,6 C 12,9 km/h (3 Bft)
02.03.2021 11:55 12,4 C 62 % 1032,5 hPa 0,0 l/m 5,2 km/h (1 Bft) NO 42 5,3 C 12,4 C 14,5 km/h (3 Bft)
02.03.2021 11:50 12,3 C 63 % 1032,5 hPa 0,0 l/m 4,8 km/h (1 Bft) O 101 5,5 C 12,3 C 12,9 km/h (3 Bft)
02.03.2021 11:45 12,2 C 63 % 1032,5 hPa 0,0 l/m 4,5 km/h (1 Bft) O-SO 103 5,4 C 12,2 C 11,3 km/h (2 Bft)
02.03.2021 11:40 11,9 C 65 % 1032,4 hPa 0,0 l/m 5,1 km/h (1 Bft) O-SO 103 5,5 C 11,9 C 12,9 km/h (3 Bft)
02.03.2021 11:35 11,8 C 64 % 1032,4 hPa 0,0 l/m 6,6 km/h (2 Bft) O-SO 107 5,2 C 11,7 C 14,5 km/h (3 Bft)
02.03.2021 11:30 11,7 C 64 % 1032,5 hPa 0,0 l/m 5,8 km/h (2 Bft) NO 52 5,1 C 11,7 C 11,3 km/h (2 Bft)
02.03.2021 11:25 11,6 C 64 % 1032,5 hPa 0,0 l/m 5,6 km/h (2 Bft) S-SO 147 5,0 C 11,6 C 12,9 km/h (3 Bft)
02.03.2021 11:20 11,4 C 65 % 1032,4 hPa 0,0 l/m 4,7 km/h (1 Bft) SO 136 5,1 C 11,4 C 11,3 km/h (2 Bft)
02.03.2021 11:15 11,2 C 65 % 1032,4 hPa 0,0 l/m 4,5 km/h (1 Bft) NO 50 4,9 C 11,2 C 14,5 km/h (3 Bft)
02.03.2021 11:10 11,1 C 66 % 1032,4 hPa 0,0 l/m 3,7 km/h (1 Bft) NO 53 5,0 C 11,1 C 11,3 km/h (2 Bft)
02.03.2021 11:05 10,9 C 65 % 1032,5 hPa 0,0 l/m 6,1 km/h (2 Bft) O-SO 111 4,6 C 10,9 C 12,9 km/h (3 Bft)
02.03.2021 11:00 10,8 C 66 % 1032,4 hPa 0,0 l/m 4,4 km/h (1 Bft) O 95 4,7 C 10,8 C 9,7 km/h (2 Bft)
02.03.2021 10:55 10,6 C 68 % 1032,5 hPa 0,0 l/m 2,3 km/h (1 Bft) O-NO 66 4,9 C 10,6 C 6,4 km/h (2 Bft)
02.03.2021 10:50 10,3 C 68 % 1032,6 hPa 0,0 l/m 4,6 km/h (1 Bft) O-SO 108 4,7 C 10,3 C 11,3 km/h (2 Bft)
02.03.2021 10:45 10,1 C 68 % 1032,6 hPa 0,0 l/m 3,5 km/h (1 Bft) O-SO 107 4,5 C 10,1 C 9,7 km/h (2 Bft)
02.03.2021 10:40 9,9 C 68 % 1032,5 hPa 0,0 l/m 5,3 km/h (1 Bft) O-SO 104 4,3 C 9,9 C 12,9 km/h (3 Bft)
02.03.2021 10:35 9,8 C 68 % 1032,5 hPa 0,0 l/m 4,9 km/h (1 Bft) S-SO 150 4,2 C 9,8 C 11,3 km/h (2 Bft)
02.03.2021 10:30 9,6 C 69 % 1032,4 hPa 0,0 l/m 3,7 km/h (1 Bft) O 86 4,2 C 9,6 C 11,3 km/h (2 Bft)
02.03.2021 10:25 9,5 C 69 % 1032,4 hPa 0,0 l/m 4,4 km/h (1 Bft) O 82 4,1 C 9,5 C 12,9 km/h (3 Bft)
02.03.2021 10:20 9,3 C 70 % 1032,4 hPa 0,0 l/m 4,9 km/h (1 Bft) O-SO 121 4,1 C 9,3 C 11,3 km/h (2 Bft)
02.03.2021 10:15 9,2 C 70 % 1032,4 hPa 0,0 l/m 3,7 km/h (1 Bft) O 99 4,0 C 9,2 C 9,7 km/h (2 Bft)
02.03.2021 10:10 8,9 C 70 % 1032,4 hPa 0,0 l/m 4,5 km/h (1 Bft) SO 125 3,7 C 8,9 C 9,7 km/h (2 Bft)
02.03.2021 10:05 8,8 C 70 % 1032,3 hPa 0,0 l/m 5,0 km/h (1 Bft) O 96 3,6 C 8,8 C 12,9 km/h (3 Bft)
02.03.2021 10:00 8,7 C 70 % 1032,4 hPa 0,0 l/m 5,8 km/h (2 Bft) O-SO 111 3,5 C 8,7 C 11,3 km/h (2 Bft)
02.03.2021 09:55 8,7 C 71 % 1032,4 hPa 0,0 l/m 4,5 km/h (1 Bft) O 92 3,7 C 8,7 C 11,3 km/h (2 Bft)
02.03.2021 09:50 8,5 C 71 % 1032,4 hPa 0,0 l/m 3,8 km/h (1 Bft) O 98 3,5 C 8,5 C 11,3 km/h (2 Bft)
02.03.2021 09:45 8,2 C 73 % 1032,4 hPa 0,0 l/m 4,0 km/h (1 Bft) O-SO 107 3,7 C 8,2 C 11,3 km/h (2 Bft)
02.03.2021 09:40 7,9 C 73 % 1032,3 hPa 0,0 l/m 4,5 km/h (1 Bft) O-SO 107 3,4 C 7,9 C 9,7 km/h (2 Bft)
02.03.2021 09:35 7,6 C 74 % 1032,2 hPa 0,0 l/m 4,9 km/h (1 Bft) O-NO 77 3,3 C 7,6 C 12,9 km/h (3 Bft)
02.03.2021 09:30 7,3 C 75 % 1032,2 hPa 0,0 l/m 4,1 km/h (1 Bft) O-SO 109 3,2 C 7,3 C 11,3 km/h (2 Bft)
02.03.2021 09:25 7,1 C 75 % 1032,2 hPa 0,0 l/m 5,5 km/h (2 Bft) O 96 3,0 C 7,1 C 12,9 km/h (3 Bft)
02.03.2021 09:20 6,9 C 76 % 1032,2 hPa 0,0 l/m 4,2 km/h (1 Bft) O-SO 115 3,0 C 6,9 C 9,7 km/h (2 Bft)
02.03.2021 09:15 6,8 C 77 % 1032,1 hPa 0,0 l/m 2,4 km/h (1 Bft) O-SO 105 3,1 C 6,8 C 6,4 km/h (2 Bft)
02.03.2021 09:10 6,6 C 77 % 1032,0 hPa 0,0 l/m 3,5 km/h (1 Bft) S-SW 201 2,9 C 6,6 C 11,3 km/h (2 Bft)
02.03.2021 09:05 6,3 C 77 % 1032,1 hPa 0,0 l/m 3,0 km/h (1 Bft) SO 136 2,6 C 6,3 C 9,7 km/h (2 Bft)
02.03.2021 09:00 6,1 C 78 % 1032,1 hPa 0,0 l/m 3,5 km/h (1 Bft) SO 136 2,6 C 6,1 C 9,7 km/h (2 Bft)
02.03.2021 08:55 5,8 C 80 % 1032,1 hPa 0,0 l/m 2,4 km/h (1 Bft) O 101 2,6 C 5,8 C 6,4 km/h (2 Bft)
02.03.2021 08:50 5,6 C 80 % 1032,1 hPa 0,0 l/m 2,0 km/h (1 Bft) O-SO 113 2,4 C 5,6 C 6,4 km/h (2 Bft)
02.03.2021 08:45 5,4 C 81 % 1032,1 hPa 0,0 l/m 1,9 km/h (1 Bft) O-SO 115 2,4 C 5,4 C 4,8 km/h (1 Bft)
02.03.2021 08:40 5,2 C 81 % 1032,2 hPa 0,0 l/m 1,3 km/h (1 Bft) O 101 2,2 C 5,2 C 6,4 km/h (2 Bft)
02.03.2021 08:35 5,1 C 81 % 1032,0 hPa 0,0 l/m 0,4 km/h (0 Bft) SO 125 2,1 C 5,1 C 3,2 km/h (1 Bft)
02.03.2021 08:30 4,9 C 82 % 1032,0 hPa 0,0 l/m 1,1 km/h (1 Bft) SO 126 2,1 C 4,9 C 4,8 km/h (1 Bft)
02.03.2021 08:25 4,8 C 82 % 1032,1 hPa 0,0 l/m 1,5 km/h (1 Bft) O-SO 103 2,0 C 4,8 C 4,8 km/h (1 Bft)
02.03.2021 08:20 4,6 C 82 % 1032,0 hPa 0,0 l/m 2,5 km/h (1 Bft) O-SO 107 1,8 C 4,6 C 6,4 km/h (2 Bft)
02.03.2021 08:15 4,4 C 83 % 1031,9 hPa 0,0 l/m 1,5 km/h (1 Bft) O-SO 104 1,8 C 4,4 C 4,8 km/h (1 Bft)
02.03.2021 08:10 4,4 C 83 % 1032,0 hPa 0,0 l/m 2,3 km/h (1 Bft) O 93 1,8 C 4,4 C 6,4 km/h (2 Bft)
02.03.2021 08:05 4,3 C 83 % 1032,0 hPa 0,0 l/m 2,0 km/h (1 Bft) O-SO 102 1,7 C 4,3 C 4,8 km/h (1 Bft)
02.03.2021 08:00 4,3 C 83 % 1032,0 hPa 0,0 l/m 2,1 km/h (1 Bft) SO 126 1,7 C 4,3 C 4,8 km/h (1 Bft)
02.03.2021 07:55 4,2 C 83 % 1032,1 hPa 0,0 l/m 2,9 km/h (1 Bft) O 94 1,6 C 4,2 C 6,4 km/h (2 Bft)
02.03.2021 07:50 4,1 C 84 % 1032,1 hPa 0,0 l/m 2,2 km/h (1 Bft) O-SO 120 1,6 C 4,1 C 4,8 km/h (1 Bft)
02.03.2021 07:45 3,9 C 84 % 1032,1 hPa 0,0 l/m 2,4 km/h (1 Bft) O-SO 118 1,4 C 3,9 C 6,4 km/h (2 Bft)
02.03.2021 07:40 3,7 C 85 % 1032,1 hPa 0,0 l/m 3,0 km/h (1 Bft) O-SO 102 1,4 C 3,7 C 6,4 km/h (2 Bft)
02.03.2021 07:35 3,6 C 85 % 1032,1 hPa 0,0 l/m 1,0 km/h (0 Bft) O-SO 119 1,3 C 3,6 C 4,8 km/h (1 Bft)
02.03.2021 07:30 3,6 C 85 % 1032,0 hPa 0,0 l/m 0,1 km/h (0 Bft) O-SO 117 1,3 C 3,6 C 1,6 km/h (1 Bft)
02.03.2021 07:25 3,6 C 85 % 1032,1 hPa 0,0 l/m 0,2 km/h (0 Bft) O-SO 117 1,3 C 3,6 C 3,2 km/h (1 Bft)
02.03.2021 07:20 3,6 C 85 % 1032,1 hPa 0,0 l/m 0,5 km/h (0 Bft) O-SO 118 1,3 C 3,6 C 3,2 km/h (1 Bft)
02.03.2021 07:15 3,7 C 85 % 1032,1 hPa 0,0 l/m 0,6 km/h (0 Bft) O-SO 105 1,4 C 3,7 C 3,2 km/h (1 Bft)
02.03.2021 07:10 3,7 C 85 % 1032,2 hPa 0,0 l/m 1,0 km/h (0 Bft) O-SO 106 1,4 C 3,7 C 3,2 km/h (1 Bft)
02.03.2021 07:05 3,7 C 85 % 1032,2 hPa 0,0 l/m 0,2 km/h (0 Bft) O-SO 104 1,4 C 3,7 C 3,2 km/h (1 Bft)
02.03.2021 07:00 3,7 C 85 % 1032,2 hPa 0,0 l/m 0,9 km/h (0 Bft) O-SO 108 1,4 C 3,7 C 4,8 km/h (1 Bft)
02.03.2021 06:55 3,6 C 85 % 1032,1 hPa 0,0 l/m 1,7 km/h (1 Bft) O-SO 115 1,3 C 3,6 C 4,8 km/h (1 Bft)
02.03.2021 06:50 3,5 C 86 % 1032,1 hPa 0,0 l/m 2,5 km/h (1 Bft) O-SO 115 1,4 C 3,5 C 6,4 km/h (2 Bft)
02.03.2021 06:45 3,3 C 86 % 1032,1 hPa 0,0 l/m 2,9 km/h (1 Bft) O 100 1,2 C 3,3 C 6,4 km/h (2 Bft)
02.03.2021 06:40 3,1 C 86 % 1032,1 hPa 0,0 l/m 2,8 km/h (1 Bft) S 171 1,0 C 3,1 C 6,4 km/h (2 Bft)
02.03.2021 06:35 2,9 C 86 % 1032,1 hPa 0,0 l/m 2,4 km/h (1 Bft) O-NO 70 0,8 C 2,9 C 9,7 km/h (2 Bft)
02.03.2021 06:30 2,8 C 87 % 1032,1 hPa 0,0 l/m 2,8 km/h (1 Bft) O 98 0,9 C 2,8 C 6,4 km/h (2 Bft)
02.03.2021 06:25 2,7 C 87 % 1032,1 hPa 0,0 l/m 1,0 km/h (0 Bft) O-SO 105 0,8 C 2,7 C 4,8 km/h (1 Bft)
02.03.2021 06:20 2,7 C 87 % 1032,1 hPa 0,0 l/m 0,7 km/h (0 Bft) O-SO 118 0,8 C 2,7 C 3,2 km/h (1 Bft)
02.03.2021 06:15 2,7 C 86 % 1032,0 hPa 0,0 l/m 1,1 km/h (1 Bft) O-SO 117 0,6 C 2,7 C 3,2 km/h (1 Bft)
02.03.2021 06:10 2,7 C 86 % 1032,0 hPa 0,0 l/m 1,7 km/h (1 Bft) O-SO 109 0,6 C 2,7 C 4,8 km/h (1 Bft)
02.03.2021 06:05 2,8 C 86 % 1032,1 hPa 0,0 l/m 0,1 km/h (0 Bft) O-SO 104 0,7 C 2,8 C 1,6 km/h (1 Bft)
02.03.2021 06:00 2,8 C 86 % 1032,2 hPa 0,0 l/m 1,8 km/h (1 Bft) O-SO 103 0,7 C 2,8 C 4,8 km/h (1 Bft)
02.03.2021 05:55 2,8 C 86 % 1032,1 hPa 0,0 l/m 1,4 km/h (1 Bft) O-SO 108 0,7 C 2,8 C 4,8 km/h (1 Bft)
02.03.2021 05:50 2,8 C 86 % 1032,1 hPa 0,0 l/m 2,4 km/h (1 Bft) O-SO 113 0,7 C 2,8 C 6,4 km/h (2 Bft)
02.03.2021 05:45 2,8 C 86 % 1032,1 hPa 0,0 l/m 1,1 km/h (1 Bft) O-SO 113 0,7 C 2,8 C 3,2 km/h (1 Bft)
02.03.2021 05:40 2,9 C 86 % 1032,2 hPa 0,0 l/m 0,5 km/h (0 Bft) O-SO 109 0,8 C 2,9 C 3,2 km/h (1 Bft)
02.03.2021 05:35 2,9 C 86 % 1032,1 hPa 0,0 l/m 0,3 km/h (0 Bft) O-SO 104 0,8 C 2,9 C 3,2 km/h (1 Bft)
02.03.2021 05:30 3,1 C 86 % 1032,1 hPa 0,0 l/m 1,0 km/h (0 Bft) O-SO 104 1,0 C 3,1 C 3,2 km/h (1 Bft)
02.03.2021 05:25 3,1 C 86 % 1032,0 hPa 0,0 l/m 1,6 km/h (1 Bft) O-SO 104 1,0 C 3,1 C 4,8 km/h (1 Bft)
02.03.2021 05:20 3,1 C 86 % 1032,1 hPa 0,0 l/m 2,6 km/h (1 Bft) O 101 1,0 C 3,1 C 4,8 km/h (1 Bft)
02.03.2021 05:15 3,1 C 87 % 1032,1 hPa 0,0 l/m 1,7 km/h (1 Bft) O 92 1,2 C 3,1 C 4,8 km/h (1 Bft)
02.03.2021 05:10 3,0 C 87 % 1032,0 hPa 0,0 l/m 2,8 km/h (1 Bft) O-SO 109 1,1 C 3,0 C 6,4 km/h (2 Bft)
02.03.2021 05:05 2,8 C 88 % 1032,0 hPa 0,0 l/m 3,9 km/h (1 Bft) O-SO 107 1,0 C 2,8 C 11,3 km/h (2 Bft)
02.03.2021 05:00 2,7 C 88 % 1032,0 hPa 0,0 l/m 2,7 km/h (1 Bft) O-SO 118 0,9 C 2,7 C 6,4 km/h (2 Bft)
_ Min-Zeit 03:20 15:10 03:50 - 19:00 - - 03:45 03:45 19:05
Minimum _ 2,3 C 53 % 1030,0 hPa - 0,0 km/h (0 Bft) - - 0,0 C 2,3 C 0,0 km/h (0 Bft)
_ Max-Zeit 15:55 05:00 10:45 05:00 11:35 - - 16:15 16:15 14:25
Maximum _ 16,5 C 88 % 1032,6 hPa 0,0 l/m 6,6 km/h
O-SO (2 Bft)
- - 7,2 C 16,5 C 17,7 km/h
O (3 Bft)
Durchschnitt _ 7,9 C 73 % 1031,4 hPa #0,0 l/m 2,1 km/h (1 Bft) O-SO - 3,2 C 7,9 C 5,6 km/h (2 Bft)
www.klaudt.eu